createdAt,value
2022-10-05T00:00:30.308Z,1.40
2022-10-05T00:04:19.427Z,1.30
2022-10-05T00:08:23.650Z,1.38
2022-10-05T00:12:20.430Z,1.50
2022-10-05T00:16:05.331Z,1.90
2022-10-05T00:19:52.350Z,1.30
2022-10-05T00:28:36.721Z,1.67
2022-10-05T00:32:19.453Z,1.40
2022-10-05T00:36:01.462Z,1.60
2022-10-05T00:39:43.799Z,1.42
2022-10-05T00:43:54.832Z,1.25
2022-10-05T00:48:00.493Z,2.20
2022-10-05T00:51:50.079Z,1.75
2022-10-05T00:55:42.718Z,1.50
2022-10-05T00:59:47.254Z,1.85
2022-10-05T01:03:43.016Z,1.40
2022-10-05T01:07:33.906Z,2.28
2022-10-05T01:11:43.060Z,1.70
2022-10-05T01:16:08.583Z,1.33
2022-10-05T01:20:10.292Z,1.58
2022-10-05T01:24:30.692Z,2.00
2022-10-05T01:28:29.853Z,1.70
2022-10-05T01:32:33.480Z,1.80
2022-10-05T01:36:28.925Z,1.40
2022-10-05T01:40:35.113Z,1.40
2022-10-05T01:44:39.115Z,1.60
2022-10-05T01:48:45.611Z,1.40
2022-10-05T01:53:03.555Z,1.50
2022-10-05T01:57:03.839Z,1.77
2022-10-05T02:01:09.781Z,1.92
2022-10-05T02:05:12.998Z,1.70
2022-10-05T02:09:14.884Z,1.30
2022-10-05T02:13:12.693Z,1.48
2022-10-05T02:16:58.012Z,1.58
2022-10-05T02:20:42.919Z,1.80
2022-10-05T02:24:32.497Z,1.85
2022-10-05T02:28:28.253Z,1.87
2022-10-05T02:32:20.330Z,1.45
2022-10-05T02:36:11.100Z,2.05
2022-10-05T02:40:10.996Z,1.75
2022-10-05T02:44:04.780Z,1.80
2022-10-05T02:47:46.826Z,1.77
2022-10-05T02:51:37.346Z,1.88
2022-10-05T02:55:31.315Z,1.75
2022-10-05T02:59:31.404Z,1.55
2022-10-05T03:03:38.028Z,1.53
2022-10-05T03:07:43.681Z,2.10
2022-10-05T03:11:48.619Z,2.10
2022-10-05T03:16:02.210Z,1.48
2022-10-05T03:19:44.367Z,2.03
2022-10-05T03:23:57.759Z,1.98
2022-10-05T03:27:53.239Z,1.38
2022-10-05T03:32:10.020Z,1.88
2022-10-05T03:36:29.786Z,1.52
2022-10-05T03:40:32.554Z,1.55
2022-10-05T03:44:31.925Z,1.35
2022-10-05T03:48:25.673Z,1.45
2022-10-05T03:52:15.021Z,1.92
2022-10-05T03:56:10.765Z,1.63
2022-10-05T04:00:07.483Z,1.60
2022-10-05T04:03:55.232Z,2.17
2022-10-05T04:07:44.087Z,2.20
2022-10-05T04:11:39.634Z,1.70
2022-10-05T04:15:32.468Z,2.10
2022-10-05T04:19:32.267Z,1.83
2022-10-05T04:23:30.890Z,2.00
2022-10-05T04:27:27.450Z,1.50
2022-10-05T04:31:16.439Z,2.03
2022-10-05T04:35:09.981Z,1.73
2022-10-05T04:39:07.389Z,1.90
2022-10-05T04:43:17.001Z,1.55
2022-10-05T04:47:11.860Z,2.15
2022-10-05T04:51:20.899Z,2.15
2022-10-05T04:55:34.227Z,1.85
2022-10-05T04:59:50.333Z,2.20
2022-10-05T05:21:49.856Z,1.65
2022-10-05T05:26:01.519Z,1.83
2022-10-05T05:30:32.249Z,1.70
2022-10-05T05:34:33.382Z,1.95
2022-10-05T05:38:48.692Z,2.10
2022-10-05T05:42:51.240Z,1.92
2022-10-05T05:50:57.627Z,1.95
2022-10-05T05:54:46.919Z,1.80
2022-10-05T05:58:38.596Z,2.33
2022-10-05T06:02:25.600Z,2.05
2022-10-05T06:06:15.000Z,2.40
2022-10-05T06:10:06.589Z,2.50
2022-10-05T06:13:49.352Z,2.05
2022-10-05T06:17:43.795Z,1.92
2022-10-05T06:21:55.906Z,2.30
2022-10-05T06:26:10.840Z,2.28
2022-10-05T06:30:07.893Z,2.08
2022-10-05T06:33:59.507Z,2.40
2022-10-05T06:38:23.625Z,2.00
2022-10-05T06:42:25.073Z,2.65
2022-10-05T06:46:19.395Z,2.35
2022-10-05T06:50:19.978Z,2.17
2022-10-05T06:54:39.757Z,2.33
2022-10-05T06:58:31.523Z,2.00
2022-10-05T07:02:33.555Z,2.60
2022-10-05T07:06:28.261Z,2.85
2022-10-05T07:10:40.726Z,2.13
2022-10-05T07:14:41.629Z,2.22
2022-10-05T07:22:36.784Z,2.03
2022-10-05T07:26:22.826Z,2.15
2022-10-05T07:30:10.181Z,2.10
2022-10-05T07:34:07.753Z,2.83
2022-10-05T07:37:55.802Z,2.38
2022-10-05T07:41:51.336Z,1.80
2022-10-05T07:45:51.785Z,2.72
2022-10-05T07:50:04.061Z,2.55
2022-10-05T07:54:24.670Z,2.25
2022-10-05T07:58:06.768Z,2.42
2022-10-05T08:01:55.711Z,2.50
2022-10-05T08:05:47.122Z,2.40
2022-10-05T08:09:50.813Z,2.22
2022-10-05T08:14:01.091Z,2.33
2022-10-05T08:18:00.650Z,2.47
2022-10-05T08:22:09.987Z,2.40
2022-10-05T08:26:16.119Z,2.88
2022-10-05T08:30:05.764Z,2.63
2022-10-05T08:34:02.052Z,2.53
2022-10-05T08:37:46.114Z,2.40
2022-10-05T08:42:13.327Z,2.00
2022-10-05T08:46:10.511Z,2.15
2022-10-05T08:50:30.123Z,2.28
2022-10-05T08:54:32.240Z,2.80
2022-10-05T09:03:43.122Z,2.13
2022-10-05T09:08:18.657Z,2.30
2022-10-05T09:12:38.326Z,2.15
2022-10-05T09:16:32.331Z,2.55
2022-10-05T09:20:39.092Z,1.98
2022-10-05T09:24:39.035Z,2.47
2022-10-05T09:28:25.491Z,2.50
2022-10-05T09:32:27.945Z,1.63
2022-10-05T09:36:48.786Z,1.58
2022-10-05T09:40:49.214Z,1.33
2022-10-05T09:44:52.652Z,1.60
2022-10-05T09:48:52.415Z,1.50
2022-10-05T09:52:40.024Z,1.20
2022-10-05T09:56:47.241Z,1.08
2022-10-05T10:00:54.109Z,1.35
2022-10-05T10:05:43.331Z,0.90
2022-10-05T10:10:19.469Z,1.13
2022-10-05T10:14:24.069Z,0.90
2022-10-05T10:18:27.725Z,0.63
2022-10-05T10:22:34.289Z,0.50
2022-10-05T10:26:47.873Z,0.60
2022-10-05T10:30:45.148Z,0.55
2022-10-05T10:34:40.149Z,0.40
2022-10-05T10:38:34.341Z,0.50
2022-10-05T10:42:32.451Z,0.63
2022-10-05T10:46:23.245Z,0.60
2022-10-05T10:50:17.624Z,0.55
2022-10-05T10:54:12.434Z,0.40
2022-10-05T10:58:15.082Z,0.40
2022-10-05T11:02:42.741Z,0.90
2022-10-05T11:06:43.607Z,0.80
2022-10-05T11:14:52.506Z,1.52
2022-10-05T11:19:12.367Z,1.40
2022-10-05T11:23:18.916Z,0.80
2022-10-05T11:27:09.780Z,0.70
2022-10-05T11:31:13.188Z,2.00
2022-10-05T11:35:26.490Z,1.58
2022-10-05T11:39:23.592Z,1.30
2022-10-05T11:43:37.594Z,2.53
2022-10-05T11:47:28.006Z,1.50
2022-10-05T11:55:33.234Z,0.90
2022-10-05T11:59:20.158Z,0.50
2022-10-05T12:03:46.041Z,0.70
2022-10-05T12:07:43.592Z,0.88
2022-10-05T12:12:06.039Z,0.75
2022-10-05T12:16:06.890Z,0.70
2022-10-05T12:20:07.987Z,0.85
2022-10-05T12:23:54.388Z,0.50
2022-10-05T12:27:42.277Z,0.80
2022-10-05T12:31:44.140Z,0.75
2022-10-05T12:35:43.805Z,0.60
2022-10-05T12:39:50.696Z,0.60
2022-10-05T12:43:57.587Z,0.50
2022-10-05T12:47:58.122Z,0.68
2022-10-05T12:51:58.494Z,0.80
2022-10-05T12:55:50.919Z,0.70
2022-10-05T12:59:41.678Z,1.00
2022-10-05T13:03:50.175Z,0.90
2022-10-05T13:07:38.719Z,0.77
2022-10-05T13:11:49.558Z,0.57
2022-10-05T13:15:43.739Z,0.52
2022-10-05T13:19:35.738Z,0.47
2022-10-05T13:23:32.061Z,0.60
2022-10-05T13:27:22.355Z,0.50
2022-10-05T13:35:10.613Z,0.73
2022-10-05T13:39:10.360Z,0.70
2022-10-05T13:43:04.109Z,0.80
2022-10-05T13:46:50.362Z,0.90
2022-10-05T13:50:45.108Z,1.30
2022-10-05T13:54:48.310Z,1.00
2022-10-05T13:58:44.059Z,1.20
2022-10-05T14:02:40.685Z,0.80
2022-10-05T14:06:30.114Z,0.80
2022-10-05T14:10:15.285Z,1.27
2022-10-05T14:14:23.765Z,0.73
2022-10-05T14:18:39.479Z,0.55
2022-10-05T14:22:24.665Z,0.82
2022-10-05T14:26:27.452Z,0.88
2022-10-05T14:30:12.261Z,0.60
2022-10-05T14:33:54.409Z,0.95
2022-10-05T14:37:57.824Z,0.70
2022-10-05T14:41:48.070Z,0.88
2022-10-05T14:45:30.330Z,0.82
2022-10-05T14:49:36.271Z,0.82
2022-10-05T14:53:21.556Z,0.75
2022-10-05T14:57:31.169Z,1.13
2022-10-05T15:01:31.853Z,0.77
2022-10-05T15:05:42.296Z,0.98
2022-10-05T15:09:45.497Z,0.90
2022-10-05T15:13:42.057Z,1.60
2022-10-05T15:17:31.100Z,1.17
2022-10-05T15:21:15.900Z,1.13
2022-10-05T15:25:23.192Z,0.70
2022-10-05T15:29:24.347Z,1.45
2022-10-05T15:33:36.528Z,1.15
2022-10-05T15:37:22.281Z,1.33
2022-10-05T15:41:20.045Z,1.63
2022-10-05T15:45:19.299Z,2.10
2022-10-05T15:49:21.671Z,1.80
2022-10-05T15:53:25.504Z,1.92
2022-10-05T15:57:47.321Z,1.30
2022-10-05T16:01:47.309Z,2.22
2022-10-05T16:06:07.909Z,1.47
2022-10-05T16:10:01.603Z,1.17
2022-10-05T16:14:08.822Z,1.58
2022-10-05T16:18:21.639Z,1.20
2022-10-05T16:22:38.827Z,2.22
2022-10-05T16:26:31.792Z,1.30
2022-10-05T16:30:18.348Z,1.27
2022-10-05T16:34:17.354Z,1.65
2022-10-05T16:38:08.366Z,1.67
2022-10-05T16:41:55.087Z,1.35
2022-10-05T16:45:52.383Z,1.92
2022-10-05T16:50:06.305Z,2.10
2022-10-05T16:54:03.364Z,1.40
2022-10-05T16:57:51.767Z,1.73
2022-10-05T17:01:43.776Z,1.48
2022-10-05T17:05:31.721Z,2.45
2022-10-05T17:09:29.223Z,1.80
2022-10-05T17:13:28.860Z,1.70
2022-10-05T17:17:36.576Z,1.92
2022-10-05T17:21:26.479Z,1.63
2022-10-05T17:25:24.400Z,1.77
2022-10-05T17:29:16.719Z,1.95
2022-10-05T17:33:29.208Z,1.75
2022-10-05T17:37:27.946Z,2.38
2022-10-05T17:41:09.922Z,1.85
2022-10-05T17:44:58.794Z,2.10
2022-10-05T17:48:50.041Z,1.83
2022-10-05T17:52:50.772Z,3.45
2022-10-05T17:56:48.125Z,2.40
2022-10-05T18:00:40.904Z,2.33
2022-10-05T18:04:32.604Z,2.58
2022-10-05T18:08:16.861Z,2.53
2022-10-05T18:12:16.312Z,1.88
2022-10-05T18:15:58.808Z,2.22
2022-10-05T18:19:41.598Z,2.00
2022-10-05T18:23:24.032Z,2.00
2022-10-05T18:27:31.988Z,1.95
2022-10-05T18:32:05.657Z,1.95
2022-10-05T18:36:04.812Z,1.98
2022-10-05T18:40:05.807Z,1.55
2022-10-05T18:47:59.567Z,2.45
2022-10-05T18:51:53.909Z,2.33
2022-10-05T18:55:42.171Z,1.98
2022-10-05T18:59:42.366Z,2.20
2022-10-05T19:03:35.521Z,2.50
2022-10-05T19:07:46.548Z,2.67
2022-10-05T19:11:41.270Z,1.90
2022-10-05T19:15:54.258Z,2.17
2022-10-05T19:19:55.433Z,2.08
2022-10-05T19:27:55.585Z,1.92
2022-10-05T19:31:53.220Z,1.48
2022-10-05T19:35:52.028Z,3.03
2022-10-05T19:39:53.742Z,2.25
2022-10-05T19:44:07.226Z,2.30
